Time;durP1;ratioP1;P1;durP2;ratioP2;P2;SDS_P1;SDS_P2;PMS_P1;PMS_P2;Temp;Humidity;BMP_temperature;BMP_pressure;BME280_temperature;BME280_humidity;BME280_pressure;Samples;Min_cycle;Max_cycle;Signal;HPM_P1;HPM_P2
2022/11/20 00:01:48;;;;;;;20.67;15.43;;;-1.50;99.90;;;;;;4941802;28;88172;-31
2022/11/20 00:04:14;;;;;;;21.42;16.63;;;-1.50;99.90;;;;;;4941432;28;90438;-33
2022/11/20 00:06:40;;;;;;;23.95;18.30;;;-1.40;99.90;;;;;;4940916;28;90028;-31
2022/11/20 00:09:05;;;;;;;22.17;17.88;;;-1.40;99.90;;;;;;4940860;28;89826;-31
2022/11/20 00:11:31;;;;;;;23.60;17.42;;;-1.50;99.90;;;;;;4940813;28;88602;-31
2022/11/20 00:13:59;;;;;;;26.30;16.75;;;-1.50;99.90;;;;;;4940877;28;90113;-30
2022/11/20 00:16:27;;;;;;;19.90;16.15;;;-1.40;99.90;;;;;;4940155;28;90517;-32
2022/11/20 00:18:54;;;;;;;24.48;18.98;;;-1.40;99.90;;;;;;4941634;28;89175;-30
2022/11/20 00:21:20;;;;;;;20.20;16.83;;;-1.40;99.90;;;;;;4924391;28;89260;-32
2022/11/20 00:23:46;;;;;;;20.58;16.95;;;-1.30;99.90;;;;;;4940704;28;90366;-33
2022/11/20 00:26:15;;;;;;;23.20;19.20;;;-1.30;99.90;;;;;;4940992;28;89188;-31
2022/11/20 00:28:41;;;;;;;;;;;-1.30;99.90;;;;;;4940880;28;89618;-32
2022/11/20 00:31:13;;;;;;;19.60;15.88;;;-1.20;99.90;;;;;;4943030;28;89322;-30
2022/11/20 00:33:39;;;;;;;21.08;16.13;;;-1.20;99.90;;;;;;4941032;28;91558;-31
2022/11/20 00:36:08;;;;;;;21.52;16.30;;;-1.20;99.90;;;;;;4940365;28;89523;-33
2022/11/20 00:38:34;;;;;;;28.63;18.48;;;-1.20;99.90;;;;;;4940088;28;90582;-30
2022/11/20 00:41:01;;;;;;;21.83;16.00;;;-1.10;99.90;;;;;;4941178;28;89690;-31
2022/11/20 00:43:28;;;;;;;20.85;18.60;;;-1.10;99.90;;;;;;4940803;28;90437;-31
2022/11/20 00:46:08;;;;;;;25.73;18.30;;;-1.10;99.90;;;;;;4940415;28;89941;-33
2022/11/20 00:48:33;;;;;;;23.73;17.55;;;-1.10;99.90;;;;;;4940325;28;89603;-34
2022/11/20 00:50:59;;;;;;;24.17;17.73;;;-1.10;99.90;;;;;;4941128;28;88307;-31
2022/11/20 00:53:25;;;;;;;22.73;16.77;;;-1.00;99.90;;;;;;4940717;28;90128;-31
2022/11/20 00:56:00;;;;;;;20.40;17.02;;;-1.00;99.90;;;;;;4940403;28;90513;-31
2022/11/20 00:58:33;;;;;;;21.42;18.27;;;-1.00;99.90;;;;;;4928242;28;88899;-30
2022/11/20 01:01:11;;;;;;;21.35;16.92;;;-1.10;99.90;;;;;;4939411;28;89020;-32
2022/11/20 01:03:42;;;;;;;25.08;17.48;;;-1.10;99.90;;;;;;4940711;28;90898;-32
2022/11/20 01:06:13;;;;;;;21.30;17.35;;;-1.10;99.90;;;;;;4940118;28;89756;-33
2022/11/20 01:08:39;;;;;;;21.85;17.90;;;-1.10;99.90;;;;;;4939716;28;90159;-33
2022/11/20 01:11:11;;;;;;;24.13;18.75;;;-1.10;99.90;;;;;;4940528;28;89224;-32
2022/11/20 01:13:38;;;;;;;18.42;15.65;;;-1.10;99.90;;;;;;4939673;28;90081;-31
2022/11/20 01:16:08;;;;;;;21.10;16.67;;;-1.00;99.90;;;;;;4940589;28;88616;-31
2022/11/20 01:18:35;;;;;;;22.52;16.40;;;-1.00;99.90;;;;;;4940377;28;89186;-32
2022/11/20 01:21:09;;;;;;;26.58;18.63;;;-1.00;99.90;;;;;;4940274;28;89178;-32
2022/11/20 01:23:37;;;;;;;20.67;17.52;;;-1.00;99.90;;;;;;4939921;28;90230;-31
2022/11/20 01:26:06;;;;;;;21.38;16.75;;;-1.00;99.90;;;;;;4939428;28;90538;-31
2022/11/20 01:28:31;;;;;;;24.50;19.77;;;-0.90;99.90;;;;;;4939838;28;90571;-33
2022/11/20 01:30:58;;;;;;;24.75;17.10;;;-0.90;99.90;;;;;;4940590;28;88122;-32
2022/11/20 01:33:24;;;;;;;22.58;18.88;;;-0.90;99.90;;;;;;4939118;28;89339;-34
2022/11/20 01:35:49;;;;;;;23.95;18.85;;;-0.90;99.90;;;;;;4939736;28;89815;-33
2022/11/20 01:38:16;;;;;;;21.00;18.25;;;-0.90;99.90;;;;;;4939395;28;89774;-33
2022/11/20 01:40:42;;;;;;;21.88;19.50;;;-0.80;99.90;;;;;;4940026;28;88561;-33
2022/11/20 01:43:20;;;;;;;18.67;14.98;;;-0.80;99.90;;;;;;4940515;28;90702;-31
2022/11/20 01:46:16;;;;;;;22.27;18.42;;;-0.70;99.90;;;;;;4939669;28;90780;-31
2022/11/20 01:48:45;;;;;;;24.52;16.55;;;-0.70;99.90;;;;;;4939326;28;89869;-31
2022/11/20 01:51:34;;;;;;;26.73;19.42;;;-0.70;99.90;;;;;;4939258;28;88237;-32
2022/11/20 01:54:05;;;;;;;22.85;17.38;;;-0.70;99.90;;;;;;4940006;28;89980;-34
2022/11/20 01:56:32;;;;;;;18.90;16.05;;;-0.70;99.90;;;;;;4939628;28;91353;-31
2022/11/20 01:59:01;;;;;;;21.77;16.95;;;-0.70;99.90;;;;;;4937002;28;89712;-31
2022/11/20 02:01:27;;;;;;;18.52;16.52;;;-0.70;99.90;;;;;;4938863;28;87655;-31
2022/11/20 02:03:53;;;;;;;24.45;17.35;;;-0.70;99.90;;;;;;4939578;28;90550;-32
2022/11/20 02:06:38;;;;;;;23.83;17.73;;;-0.60;99.90;;;;;;4938889;28;89541;-29
2022/11/20 02:09:04;;;;;;;19.13;17.13;;;-0.60;99.90;;;;;;4921883;28;89600;-32
2022/11/20 02:11:30;;;;;;;22.63;17.02;;;-0.60;99.90;;;;;;4939519;28;87688;-30
2022/11/20 02:13:56;;;;;;;21.20;16.25;;;-0.60;99.90;;;;;;4938772;28;90355;-34
2022/11/20 02:16:24;;;;;;;27.27;18.55;;;-0.60;99.90;;;;;;4939245;28;90507;-30
2022/11/20 02:18:50;;;;;;;20.00;17.85;;;-0.60;99.90;;;;;;4939696;28;90137;-32
2022/11/20 02:21:40;;;;;;;21.65;18.42;;;-0.50;99.90;;;;;;4939338;28;90193;-34
2022/11/20 02:24:12;;;;;;;23.27;17.38;;;-0.50;99.90;;;;;;4939590;28;90032;-31
2022/11/20 02:26:44;;;;;;;21.02;16.35;;;-0.50;99.90;;;;;;4939119;28;89820;-31
2022/11/20 02:29:10;;;;;;;24.10;17.95;;;-0.50;99.90;;;;;;4939509;28;89549;-31
2022/11/20 02:31:38;;;;;;;19.67;17.23;;;-0.50;99.90;;;;;;4938763;28;88378;-31
2022/11/20 02:34:03;;;;;;;22.25;17.13;;;-0.50;99.90;;;;;;4939039;28;90424;-34
2022/11/20 02:36:33;;;;;;;18.55;15.55;;;-0.50;99.90;;;;;;4938449;28;90140;-32
2022/11/20 02:38:59;;;;;;;19.55;16.63;;;-0.50;99.90;;;;;;4938747;28;89585;-32
2022/11/20 02:41:38;;;;;;;21.05;16.98;;;-0.50;99.90;;;;;;4938466;28;89084;-31
2022/11/20 02:44:05;;;;;;;18.08;16.25;;;-0.30;99.90;;;;;;4939302;28;90814;-30
2022/11/20 02:46:31;;;;;;;21.77;16.73;;;-0.30;99.90;;;;;;4938610;28;89586;-33
2022/11/20 02:48:57;;;;;;;20.17;16.80;;;-0.30;99.90;;;;;;4939191;28;89083;-31
2022/11/20 02:51:23;;;;;;;20.00;15.90;;;-0.40;99.90;;;;;;4939045;28;88430;-32
2022/11/20 02:53:49;;;;;;;23.00;17.23;;;-0.40;99.90;;;;;;4938794;28;90698;-33
2022/11/20 02:56:15;;;;;;;28.25;16.85;;;-0.40;99.90;;;;;;4938830;28;89357;-32
2022/11/20 02:58:40;;;;;;;22.70;18.15;;;-0.40;99.90;;;;;;4938208;28;89989;-31
2022/11/20 03:01:06;;;;;;;21.92;16.17;;;-0.40;99.90;;;;;;4938961;28;89091;-34
2022/11/20 03:03:31;;;;;;;25.27;18.08;;;-0.30;99.90;;;;;;4938078;28;90081;-33
2022/11/20 03:05:59;;;;;;;19.38;17.40;;;-0.30;99.90;;;;;;4938057;28;90553;-34
2022/11/20 03:08:25;;;;;;;25.80;17.80;;;-0.30;99.90;;;;;;4938830;28;90449;-31
2022/11/20 03:10:51;;;;;;;20.98;17.20;;;-0.30;99.90;;;;;;4938685;28;90098;-31
2022/11/20 03:13:16;;;;;;;23.95;17.65;;;-0.30;99.90;;;;;;4937901;28;90344;-34
2022/11/20 03:15:42;;;;;;;21.88;17.42;;;-0.30;99.90;;;;;;4938260;28;89452;-30
2022/11/20 03:18:07;;;;;;;22.75;17.20;;;-0.30;99.90;;;;;;4938399;28;89895;-32
2022/11/20 03:20:33;;;;;;;18.92;16.75;;;-0.30;99.90;;;;;;4939499;28;90111;-31
2022/11/20 03:22:59;;;;;;;21.15;14.25;;;-0.30;99.90;;;;;;4938530;28;90942;-30
2022/11/20 03:25:25;;;;;;;20.10;15.68;;;-0.30;99.90;;;;;;4938141;28;90093;-32
2022/11/20 03:27:51;;;;;;;20.95;15.48;;;-0.20;99.90;;;;;;4938663;28;89647;-31
2022/11/20 03:30:17;;;;;;;20.58;16.67;;;-0.30;99.90;;;;;;4938597;28;90674;-31
2022/11/20 03:32:43;;;;;;;19.15;16.02;;;-0.30;99.90;;;;;;4938504;28;90252;-30
2022/11/20 03:35:09;;;;;;;17.63;15.57;;;-0.20;99.90;;;;;;4937772;28;89601;-34
2022/11/20 03:37:34;;;;;;;23.70;15.73;;;-0.20;99.90;;;;;;4938547;28;89884;-32
2022/11/20 03:40:00;;;;;;;24.90;16.73;;;-0.20;99.90;;;;;;4938745;28;88568;-31
2022/11/20 03:45:10;;;;;;;17.10;15.30;;;-0.20;99.90;;;;;;4938209;28;89597;-34
2022/11/20 03:47:36;;;;;;;17.52;15.65;;;-0.20;99.90;;;;;;4937852;28;89593;-34
2022/11/20 03:50:01;;;;;;;20.13;15.45;;;-0.10;99.90;;;;;;4939628;28;88018;-31
2022/11/20 03:52:27;;;;;;;23.55;17.08;;;-0.10;99.90;;;;;;4941523;28;90529;-31
2022/11/20 03:54:52;;;;;;;20.90;15.88;;;-0.10;99.90;;;;;;4941016;28;90889;-32
2022/11/20 03:57:18;;;;;;;23.33;16.73;;;-0.10;99.90;;;;;;4941319;28;91114;-32
2022/11/20 03:59:44;;;;;;;21.73;17.92;;;-0.10;99.90;;;;;;4940724;28;88586;-32
2022/11/20 04:02:09;;;;;;;20.85;15.68;;;-0.10;99.90;;;;;;4941943;28;90580;-34
2022/11/20 04:04:35;;;;;;;21.45;16.02;;;-0.10;99.90;;;;;;4940956;28;89771;-34
2022/11/20 04:07:00;;;;;;;20.65;15.65;;;-0.10;99.90;;;;;;4940970;28;90034;-31
2022/11/20 04:09:26;;;;;;;18.13;15.45;;;-0.10;99.90;;;;;;4941396;28;89179;-33
2022/11/20 04:11:51;;;;;;;20.70;15.32;;;-0.10;99.90;;;;;;4941377;28;90382;-34
2022/11/20 04:14:17;;;;;;;18.75;16.60;;;-0.10;99.90;;;;;;4941049;28;90019;-30
2022/11/20 04:16:43;;;;;;;22.02;17.17;;;-0.10;99.90;;;;;;4941412;28;89383;-32
2022/11/20 04:19:14;;;;;;;20.50;16.85;;;-0.10;99.90;;;;;;4941228;28;89273;-33
2022/11/20 04:21:40;;;;;;;20.08;16.90;;;0.00;99.90;;;;;;4940986;28;90395;-30
2022/11/20 04:24:06;;;;;;;19.33;16.70;;;-0.10;99.90;;;;;;4941401;28;90322;-30
2022/11/20 04:26:32;;;;;;;20.52;16.92;;;-0.10;99.90;;;;;;4940224;28;89589;-31
2022/11/20 04:28:58;;;;;;;21.67;16.48;;;-0.10;99.90;;;;;;4941676;28;89136;-31
2022/11/20 04:31:27;;;;;;;26.20;17.15;;;-0.10;99.90;;;;;;4940522;28;90165;-32
2022/11/20 04:33:53;;;;;;;22.70;16.23;;;-0.10;99.90;;;;;;4941158;28;90047;-33
2022/11/20 04:36:21;;;;;;;20.27;15.98;;;-0.10;99.90;;;;;;4941147;28;89456;-32
2022/11/20 04:39:00;;;;;;;21.15;17.08;;;-0.10;99.90;;;;;;4941539;28;87956;-32
2022/11/20 04:41:29;;;;;;;21.05;17.60;;;0.00;99.90;;;;;;4941162;28;89821;-32
2022/11/20 04:43:59;;;;;;;19.27;16.60;;;-0.10;99.90;;;;;;4940579;28;90427;-30
2022/11/20 04:46:25;;;;;;;21.40;17.25;;;0.00;99.90;;;;;;4923163;28;91652;-31
2022/11/20 04:48:51;;;;;;;20.60;16.10;;;-0.10;99.90;;;;;;4940229;28;89601;-31
2022/11/20 04:51:16;;;;;;;20.27;16.13;;;-0.10;99.90;;;;;;4941046;28;89965;-32
2022/11/20 04:53:42;;;;;;;20.75;16.98;;;-0.10;99.90;;;;;;4940205;28;88922;-30
2022/11/20 04:56:10;;;;;;;22.50;16.50;;;-0.10;99.90;;;;;;4940211;28;88719;-34
2022/11/20 04:58:36;;;;;;;22.83;16.65;;;-0.10;99.90;;;;;;4940167;28;87932;-32
2022/11/20 05:01:04;;;;;;;17.05;15.25;;;-0.10;99.90;;;;;;4939800;28;89831;-34
2022/11/20 05:03:30;;;;;;;19.23;14.75;;;-0.10;99.90;;;;;;4939505;28;89634;-30
2022/11/20 05:05:56;;;;;;;21.55;16.10;;;-0.10;99.90;;;;;;4940225;28;89837;-34
2022/11/20 05:08:22;;;;;;;18.02;14.77;;;-0.10;99.90;;;;;;4940601;28;90188;-32
2022/11/20 05:10:47;;;;;;;17.83;15.63;;;0.00;99.90;;;;;;4939888;28;90265;-31
2022/11/20 05:13:13;;;;;;;18.40;16.08;;;0.00;99.90;;;;;;4940061;28;90469;-34
2022/11/20 05:15:39;;;;;;;16.60;14.60;;;0.00;99.90;;;;;;4939620;28;89668;-33
2022/11/20 05:18:04;;;;;;;19.70;14.95;;;0.00;99.90;;;;;;4939583;28;88339;-32
2022/11/20 05:20:30;;;;;;;16.67;12.80;;;0.00;99.90;;;;;;4939693;28;91535;-32
2022/11/20 05:22:59;;;;;;;17.50;15.38;;;0.10;99.90;;;;;;4939989;28;90319;-32
2022/11/20 05:25:25;;;;;;;14.70;12.77;;;0.10;99.90;;;;;;4939721;28;89675;-33
2022/11/20 05:27:50;;;;;;;20.42;15.05;;;0.10;99.90;;;;;;4939996;28;89416;-31
2022/11/20 05:30:16;;;;;;;18.65;15.65;;;0.20;99.90;;;;;;4939628;28;90138;-33
2022/11/20 05:32:42;;;;;;;19.15;16.42;;;0.10;99.90;;;;;;4939446;28;90771;-30
2022/11/20 05:35:07;;;;;;;24.73;17.38;;;0.10;99.90;;;;;;4939242;28;90727;-30
2022/11/20 05:37:33;;;;;;;19.92;16.00;;;0.10;99.90;;;;;;4939957;28;88217;-32
2022/11/20 05:39:59;;;;;;;20.10;17.60;;;0.00;99.90;;;;;;4939419;28;91475;-31
2022/11/20 05:42:30;;;;;;;21.10;15.80;;;0.10;99.90;;;;;;4939611;28;90040;-30
2022/11/20 05:44:57;;;;;;;20.73;17.70;;;0.10;99.90;;;;;;4939729;28;89199;-33
2022/11/20 05:47:22;;;;;;;21.25;16.75;;;0.00;99.90;;;;;;4940144;28;88010;-31
2022/11/20 05:49:48;;;;;;;19.67;16.88;;;0.00;99.90;;;;;;4922013;28;91828;-33
2022/11/20 05:52:13;;;;;;;20.02;16.40;;;0.10;99.90;;;;;;4939696;28;89459;-30
2022/11/20 05:54:39;;;;;;;19.90;16.30;;;0.10;99.90;;;;;;4939862;28;91394;-30
2022/11/20 05:57:04;;;;;;;22.02;17.60;;;0.10;99.90;;;;;;4939472;28;89363;-32
2022/11/20 05:59:30;;;;;;;23.45;18.08;;;0.10;99.90;;;;;;4939651;28;88475;-31
2022/11/20 06:01:56;;;;;;;18.70;16.63;;;0.10;99.90;;;;;;4939152;28;89737;-34
2022/11/20 06:04:21;;;;;;;19.35;16.30;;;0.00;99.90;;;;;;4939519;28;89173;-32
2022/11/20 06:06:47;;;;;;;23.48;18.73;;;0.10;99.90;;;;;;4939405;28;87635;-31
2022/11/20 06:09:13;;;;;;;21.63;16.45;;;0.10;99.90;;;;;;4939340;28;90436;-31
2022/11/20 06:11:38;;;;;;;21.35;16.35;;;0.10;99.90;;;;;;4939133;28;88615;-31
2022/11/20 06:14:04;;;;;;;19.90;15.52;;;0.10;99.90;;;;;;4938188;28;89528;-33
2022/11/20 06:16:29;;;;;;;22.25;16.70;;;0.10;99.90;;;;;;4939380;28;89451;-31
2022/11/20 06:18:55;;;;;;;23.20;17.02;;;0.10;99.90;;;;;;4939128;28;91036;-33
2022/11/20 06:21:22;;;;;;;20.27;17.65;;;0.10;99.90;;;;;;4939034;28;91449;-31
2022/11/20 06:23:49;;;;;;;19.67;17.27;;;0.10;99.90;;;;;;4939337;28;89829;-33
2022/11/20 06:26:21;;;;;;;18.10;16.15;;;0.10;99.90;;;;;;4939074;28;89360;-29
2022/11/20 06:28:46;;;;;;;20.67;16.58;;;0.00;99.90;;;;;;4939152;28;90004;-31
2022/11/20 06:31:14;;;;;;;25.75;16.52;;;0.10;99.90;;;;;;4939169;28;90089;-32
2022/11/20 06:33:41;;;;;;;18.48;14.98;;;0.00;99.90;;;;;;4939381;28;89339;-34
2022/11/20 06:36:07;;;;;;;24.98;16.20;;;0.10;99.90;;;;;;4939520;28;89654;-30
2022/11/20 06:38:32;;;;;;;19.13;15.90;;;0.10;99.90;;;;;;4938918;28;90344;-31
2022/11/20 06:40:58;;;;;;;20.92;15.50;;;0.10;99.90;;;;;;4939452;28;89589;-31
2022/11/20 06:43:25;;;;;;;20.15;15.65;;;0.10;99.90;;;;;;4938647;28;90046;-34
2022/11/20 06:45:54;;;;;;;18.95;16.05;;;0.10;99.90;;;;;;4938644;28;90347;-35
2022/11/20 06:48:20;;;;;;;20.15;15.50;;;0.10;99.90;;;;;;4938716;28;89054;-31
2022/11/20 06:50:46;;;;;;;21.67;16.58;;;0.10;99.90;;;;;;4938588;28;89641;-30
2022/11/20 06:53:11;;;;;;;21.58;15.93;;;0.10;99.90;;;;;;4938699;28;88958;-34
2022/11/20 06:55:46;;;;;;;19.65;16.05;;;0.10;99.90;;;;;;4939218;28;89368;-30
2022/11/20 06:58:13;;;;;;;18.20;16.05;;;0.10;99.90;;;;;;4938911;28;90427;-33
2022/11/20 07:00:38;;;;;;;18.30;14.88;;;0.10;99.90;;;;;;4938484;28;89613;-31
2022/11/20 07:03:05;;;;;;;18.75;16.30;;;0.10;99.90;;;;;;4939110;28;90230;-33
2022/11/20 07:05:31;;;;;;;21.48;16.63;;;0.10;99.90;;;;;;4938342;28;89195;-30
2022/11/20 07:07:57;;;;;;;18.02;13.63;;;0.10;99.90;;;;;;4938867;28;90011;-31
2022/11/20 07:10:23;;;;;;;23.60;14.95;;;0.20;99.90;;;;;;4938145;28;91476;-30
2022/11/20 07:12:52;;;;;;;20.23;16.08;;;0.30;99.90;;;;;;4938140;28;89424;-33
2022/11/20 07:15:19;;;;;;;21.23;16.42;;;0.20;99.90;;;;;;4938297;28;88323;-31
2022/11/20 07:17:45;;;;;;;21.30;17.05;;;0.10;99.90;;;;;;4938713;28;90190;-31
2022/11/20 07:20:11;;;;;;;18.58;16.10;;;0.20;99.90;;;;;;4938096;28;90042;-32
2022/11/20 07:22:37;;;;;;;19.80;15.90;;;0.10;99.90;;;;;;4938517;28;89640;-31
2022/11/20 07:25:03;;;;;;;23.90;16.80;;;0.10;99.90;;;;;;4939843;28;89787;-31
2022/11/20 07:27:29;;;;;;;20.65;16.40;;;0.10;99.90;;;;;;4941546;28;90279;-33
2022/11/20 07:29:55;;;;;;;20.33;16.63;;;0.20;99.90;;;;;;4942005;28;89431;-33
2022/11/20 07:32:20;;;;;;;23.90;16.48;;;0.20;99.90;;;;;;4941214;28;91320;-32
2022/11/20 07:34:46;;;;;;;20.67;15.73;;;0.20;99.90;;;;;;4940947;28;89288;-31
2022/11/20 07:37:12;;;;;;;20.98;16.13;;;0.20;99.90;;;;;;4942120;28;90195;-31
2022/11/20 07:39:38;;;;;;;19.55;15.95;;;0.20;99.90;;;;;;4940726;28;89694;-31
2022/11/20 07:42:03;;;;;;;19.45;15.77;;;0.10;99.90;;;;;;4942183;28;89959;-31
2022/11/20 07:44:29;;;;;;;18.40;16.27;;;0.20;99.90;;;;;;4941462;28;90562;-31
2022/11/20 07:46:54;;;;;;;23.15;17.20;;;0.20;99.90;;;;;;4941882;28;89639;-29
2022/11/20 07:49:20;;;;;;;20.20;16.50;;;0.20;99.90;;;;;;4942037;28;89429;-34
2022/11/20 07:51:45;;;;;;;24.98;17.38;;;0.20;99.90;;;;;;4941472;28;89128;-31
2022/11/20 07:54:11;;;;;;;16.98;15.23;;;0.20;99.90;;;;;;4942480;28;89911;-31
2022/11/20 07:56:36;;;;;;;20.92;16.73;;;0.30;99.90;;;;;;4941598;28;91131;-30
2022/11/20 07:59:03;;;;;;;21.00;16.65;;;0.30;99.90;;;;;;4941819;28;90631;-31
2022/11/20 08:01:28;;;;;;;26.95;17.42;;;0.30;99.90;;;;;;4941155;28;90361;-33
2022/11/20 08:03:54;;;;;;;20.70;17.42;;;0.30;99.90;;;;;;4941842;28;88987;-33
2022/11/20 08:06:20;;;;;;;26.65;16.38;;;0.30;99.90;;;;;;4941255;28;88891;-33
2022/11/20 08:08:45;;;;;;;19.63;16.35;;;0.30;99.90;;;;;;4940905;28;89867;-32
2022/11/20 08:14:13;;;;;;;19.77;17.77;;;0.30;99.90;;;;;;4940752;28;89328;-31
2022/11/20 08:16:47;;;;;;;23.25;16.92;;;0.30;99.90;;;;;;4929890;28;90410;-29
2022/11/20 08:19:14;;;;;;;15.75;13.82;;;0.40;99.90;;;;;;4941728;28;88998;-30
2022/11/20 08:21:40;;;;;;;21.88;14.93;;;0.40;99.90;;;;;;4941391;28;89312;-31
2022/11/20 08:24:06;;;;;;;19.58;16.92;;;0.40;99.90;;;;;;4941112;28;90556;-32
2022/11/20 08:26:32;;;;;;;20.45;16.55;;;0.40;99.90;;;;;;4944530;28;90105;-33
2022/11/20 08:28:58;;;;;;;20.05;16.08;;;0.40;99.90;;;;;;4946365;28;89201;-32
2022/11/20 08:31:26;;;;;;;22.95;17.55;;;0.50;99.90;;;;;;4946474;28;89202;-33
2022/11/20 08:33:51;;;;;;;19.70;16.63;;;0.50;99.90;;;;;;4946501;28;87901;-32
2022/11/20 08:36:18;;;;;;;21.73;17.55;;;0.50;99.90;;;;;;4943262;28;90532;-32
2022/11/20 08:38:52;;;;;;;25.17;16.40;;;0.50;99.90;;;;;;4943517;28;89977;-33
2022/11/20 08:41:26;;;;;;;20.45;17.05;;;0.50;99.90;;;;;;4943711;28;89763;-34
2022/11/20 08:44:03;;;;;;;23.20;16.20;;;0.50;99.90;;;;;;4942568;28;88903;-33
2022/11/20 08:46:37;;;;;;;20.35;16.52;;;0.50;99.90;;;;;;4942218;28;90546;-33
2022/11/20 08:49:04;;;;;;;24.08;18.30;;;0.50;99.90;;;;;;4944033;28;90739;-31
2022/11/20 08:51:30;;;;;;;21.65;16.58;;;0.50;99.90;;;;;;4943440;28;90588;-31
2022/11/20 08:53:56;;;;;;;21.50;16.08;;;0.50;99.90;;;;;;4944850;28;89438;-33
2022/11/20 08:56:21;;;;;;;18.98;16.00;;;0.60;99.90;;;;;;4954197;28;90321;-30
2022/11/20 08:58:47;;;;;;;18.73;15.88;;;0.60;99.90;;;;;;4947595;28;89116;-31
2022/11/20 09:01:12;;;;;;;19.60;16.55;;;0.60;99.90;;;;;;4939967;28;89717;-31
2022/11/20 09:03:38;;;;;;;20.77;17.08;;;0.60;99.90;;;;;;4939615;28;89074;-33
2022/11/20 09:06:06;;;;;;;19.23;16.35;;;0.60;99.90;;;;;;4922464;28;90396;-33
2022/11/20 09:08:32;;;;;;;20.52;16.77;;;0.60;99.90;;;;;;4943851;28;89650;-31
2022/11/20 09:10:59;;;;;;;18.88;14.95;;;0.60;99.90;;;;;;4940107;28;90428;-31
2022/11/20 09:13:26;;;;;;;19.70;16.02;;;0.60;99.90;;;;;;4972742;23;88957;-32
2022/11/20 09:16:01;;;;;;;23.25;17.55;;;0.70;99.90;;;;;;4941903;28;89566;-34
2022/11/20 09:18:31;;;;;;;18.50;15.40;;;0.70;99.90;;;;;;4927017;28;88852;-33
2022/11/20 09:21:01;;;;;;;18.13;16.20;;;0.70;99.90;;;;;;4939672;28;89504;-32
2022/11/20 09:23:31;;;;;;;22.63;15.85;;;0.80;99.90;;;;;;4926695;28;88827;-34
2022/11/20 09:25:59;;;;;;;20.05;16.10;;;0.80;99.90;;;;;;4940017;28;90312;-32
2022/11/20 09:28:25;;;;;;;23.08;17.75;;;0.80;99.90;;;;;;4937499;28;89679;-31
2022/11/20 09:30:51;;;;;;;22.08;16.35;;;0.80;99.90;;;;;;4937566;28;89883;-30
2022/11/20 09:33:17;;;;;;;20.17;16.23;;;0.80;99.90;;;;;;4951801;28;89872;-32
2022/11/20 09:35:44;;;;;;;17.50;15.25;;;0.90;99.90;;;;;;4956115;28;90149;-32
2022/11/20 09:38:10;;;;;;;18.70;15.60;;;0.90;99.90;;;;;;4955952;28;90232;-32
2022/11/20 09:40:40;;;;;;;18.58;14.88;;;0.90;99.90;;;;;;4949733;28;92199;-33
2022/11/20 09:43:14;;;;;;;19.65;16.02;;;0.90;99.90;;;;;;4950855;28;87887;-33
2022/11/20 09:46:02;;;;;;;20.50;16.80;;;1.00;99.90;;;;;;4955800;28;90464;-32
2022/11/20 09:48:46;;;;;;;17.25;15.23;;;1.00;99.90;;;;;;4955646;28;89750;-31
2022/11/20 09:51:12;;;;;;;16.73;12.57;;;1.10;99.90;;;;;;4957085;28;89849;-31
2022/11/20 09:53:55;;;;;;;17.77;15.90;;;1.10;99.90;;;;;;4955839;28;88694;-33
2022/11/20 09:56:21;;;;;;;21.92;17.15;;;1.20;99.90;;;;;;4956196;28;90331;-32
2022/11/20 09:59:02;;;;;;;19.25;16.23;;;1.10;99.90;;;;;;4955354;28;89794;-32
2022/11/20 10:01:36;;;;;;;20.70;17.33;;;1.10;99.90;;;;;;4955581;28;89682;-34
2022/11/20 10:04:17;;;;;;;19.23;16.38;;;1.00;99.90;;;;;;4955888;28;89931;-31
2022/11/20 10:06:52;;;;;;;23.73;17.83;;;1.00;99.90;;;;;;4947631;28;90085;-31
2022/11/20 10:09:30;;;;;;;19.45;16.42;;;1.10;99.90;;;;;;4937149;28;89899;-33
2022/11/20 10:11:59;;;;;;;21.83;17.77;;;1.10;99.90;;;;;;4936644;28;89132;-34
2022/11/20 10:14:34;;;;;;;;;;;1.10;99.90;;;;;;4942750;28;88610;-32
2022/11/20 10:17:37;;;;;;;18.42;15.25;;;1.20;99.90;;;;;;4941836;28;90649;-32
2022/11/20 10:20:24;;;;;;;20.60;15.50;;;1.20;99.90;;;;;;4927011;28;89637;-33
2022/11/20 10:23:09;;;;;;;19.73;15.90;;;1.30;99.90;;;;;;4939411;28;89482;-30
2022/11/20 10:25:40;;;;;;;17.92;15.85;;;1.40;99.90;;;;;;4955865;28;89447;-33
2022/11/20 10:28:50;;;;;;;19.10;16.20;;;1.50;99.90;;;;;;4960180;28;90296;-30
2022/11/20 10:31:34;;;;;;;20.90;16.65;;;1.60;99.90;;;;;;4934967;28;90714;-32
2022/11/20 10:34:05;;;;;;;23.52;16.17;;;1.70;99.90;;;;;;4945778;28;90908;-32
2022/11/20 10:36:38;;;;;;;21.08;15.82;;;1.70;99.90;;;;;;4948233;28;88368;-31
2022/11/20 10:39:14;;;;;;;17.27;14.13;;;1.80;99.90;;;;;;4947338;28;90302;-33
2022/11/20 10:41:41;;;;;;;15.07;13.45;;;1.80;99.90;;;;;;4940293;28;89848;-29
2022/11/20 10:47:09;;;;;;;18.63;15.15;;;1.90;99.90;;;;;;4945364;28;88168;-35
2022/11/20 10:49:35;;;;;;;17.95;15.57;;;1.90;99.90;;;;;;4946138;28;90350;-32
2022/11/20 10:52:18;;;;;;;16.60;14.88;;;2.00;99.90;;;;;;4942233;28;89618;-31
2022/11/20 10:54:48;;;;;;;22.42;15.52;;;2.10;99.90;;;;;;4937310;28;89188;-34
2022/11/20 10:57:29;;;;;;;21.35;16.13;;;2.20;99.90;;;;;;4938257;28;90207;-30
2022/11/20 11:00:17;;;;;;;16.50;14.23;;;2.20;99.90;;;;;;4942552;28;90280;-33
2022/11/20 11:02:47;;;;;;;15.33;13.63;;;2.30;99.90;;;;;;4944513;28;89010;-34
2022/11/20 11:05:27;;;;;;;14.88;13.02;;;2.40;99.90;;;;;;4943139;28;89764;-33
2022/11/20 11:07:55;;;;;;;17.40;13.43;;;2.40;99.90;;;;;;4941472;28;88898;-31
2022/11/20 11:10:27;;;;;;;15.10;13.55;;;2.40;99.90;;;;;;4938989;28;88825;-33
2022/11/20 11:12:53;;;;;;;15.32;13.13;;;2.50;99.90;;;;;;4940222;28;89785;-31
2022/11/20 11:15:30;;;;;;;15.10;13.65;;;2.60;99.90;;;;;;4940192;28;89086;-32
2022/11/20 11:17:56;;;;;;;11.02;9.95;;;2.60;99.90;;;;;;4954676;28;88754;-34
2022/11/20 11:20:25;;;;;;;12.07;10.70;;;2.60;99.90;;;;;;4959804;28;89788;-34
2022/11/20 11:22:58;;;;;;;10.57;9.55;;;2.60;99.90;;;;;;4958947;28;90571;-33
2022/11/20 11:25:36;;;;;;;20.13;13.95;;;2.60;99.90;;;;;;4962315;28;89277;-33
2022/11/20 11:28:17;;;;;;;14.95;13.43;;;2.50;99.90;;;;;;4958916;28;89095;-34
2022/11/20 11:30:44;;;;;;;16.90;13.70;;;2.50;99.90;;;;;;4957534;28;90696;-32
2022/11/20 11:33:17;;;;;;;16.77;14.93;;;2.50;99.90;;;;;;4957321;28;89948;-33
2022/11/20 11:35:46;;;;;;;17.73;15.40;;;2.50;99.90;;;;;;4958578;28;89730;-31
2022/11/20 11:38:16;;;;;;;17.33;13.57;;;2.50;99.90;;;;;;4958904;28;88361;-30
2022/11/20 11:40:43;;;;;;;16.00;13.95;;;2.60;99.90;;;;;;4958238;28;89038;-33
2022/11/20 11:46:29;;;;;;;13.20;11.98;;;2.60;99.90;;;;;;4959158;28;89603;-32
2022/11/20 11:48:57;;;;;;;14.18;10.75;;;2.60;99.90;;;;;;4958675;28;88974;-33
2022/11/20 11:51:23;;;;;;;13.20;10.55;;;2.60;99.90;;;;;;4958582;28;90246;-32
2022/11/20 11:53:50;;;;;;;13.93;10.73;;;2.60;99.90;;;;;;4962518;28;90225;-32
2022/11/20 11:56:16;;;;;;;16.50;11.43;;;2.60;99.90;;;;;;4963942;28;89480;-34
2022/11/20 11:58:49;;;;;;;16.33;12.25;;;2.60;99.90;;;;;;4960679;28;88232;-32
2022/11/20 12:01:38;;;;;;;12.38;11.13;;;2.60;99.90;;;;;;4958159;28;89896;-35
2022/11/20 12:04:37;;;;;;;15.85;11.70;;;2.60;99.90;;;;;;4958623;28;89971;-31
2022/11/20 12:07:42;;;;;;;11.93;10.73;;;2.60;99.90;;;;;;4948963;28;89487;-32
2022/11/20 12:10:22;;;;;;;13.13;10.32;;;2.60;99.90;;;;;;4935977;28;88311;-35
2022/11/20 12:13:01;;;;;;;17.05;12.05;;;2.70;99.90;;;;;;4938331;28;89903;-35
2022/11/20 12:15:31;;;;;;;16.55;13.15;;;2.80;99.90;;;;;;4938630;28;89760;-34
2022/11/20 12:17:56;;;;;;;18.40;15.73;;;2.80;99.90;;;;;;4944101;28;90166;-30
2022/11/20 12:20:28;;;;;;;18.98;16.50;;;2.90;99.90;;;;;;4940261;28;89228;-33
2022/11/20 12:23:10;;;;;;;18.92;16.90;;;2.90;99.90;;;;;;4948638;28;90719;-32
2022/11/20 12:25:36;;;;;;;20.00;17.83;;;2.90;99.90;;;;;;4955061;28;90113;-30
2022/11/20 12:28:28;;;;;;;20.30;17.17;;;3.00;99.90;;;;;;4954729;28;89633;-31
2022/11/20 12:31:05;;;;;;;19.88;15.93;;;3.10;99.90;;;;;;4967303;28;88938;-31
2022/11/20 12:34:03;;;;;;;15.60;13.85;;;3.30;99.90;;;;;;4950479;28;89928;-32
2022/11/20 12:36:48;;;;;;;12.77;11.23;;;3.60;99.90;;;;;;4956958;28;89457;-31
2022/11/20 12:39:33;;;;;;;17.33;11.88;;;3.80;99.90;;;;;;4954388;28;89619;-31
2022/11/20 12:45:09;;;;;;;11.90;10.60;;;4.00;99.90;;;;;;4957500;28;89315;-31
2022/11/20 12:47:59;;;;;;;12.00;10.50;;;4.00;99.90;;;;;;4958622;28;88271;-30
2022/11/20 12:50:55;;;;;;;12.57;11.25;;;3.90;99.90;;;;;;4950681;28;89638;-33
2022/11/20 12:53:23;;;;;;;13.20;11.80;;;3.90;99.90;;;;;;4940155;28;89124;-35
2022/11/20 12:56:17;;;;;;;14.50;12.90;;;3.70;99.90;;;;;;4941056;28;89984;-32
2022/11/20 12:59:00;;;;;;;15.77;12.02;;;3.70;99.90;;;;;;4943875;28;89790;-32
2022/11/20 13:01:39;;;;;;;16.27;13.13;;;3.60;99.90;;;;;;4941302;28;89672;-33